createdAt,value
2022-07-30T00:00:24.726Z,44.03
2022-07-30T00:02:52.476Z,44.10
2022-07-30T00:05:19.629Z,41.83
2022-07-30T00:07:47.384Z,38.37
2022-07-30T00:10:14.517Z,39.23
2022-07-30T00:12:41.670Z,40.10
2022-07-30T00:15:09.159Z,35.73
2022-07-30T00:17:36.372Z,35.37
2022-07-30T00:20:03.916Z,36.80
2022-07-30T00:22:31.423Z,33.77
2022-07-30T00:24:58.615Z,35.77
2022-07-30T00:27:25.769Z,35.67
2022-07-30T00:29:52.975Z,34.27
2022-07-30T00:32:20.170Z,37.70
2022-07-30T00:34:47.375Z,38.27
2022-07-30T00:37:14.526Z,37.43
2022-07-30T00:39:41.686Z,38.63
2022-07-30T00:42:08.882Z,38.23
2022-07-30T00:44:36.027Z,48.03
2022-07-30T00:47:08.368Z,39.83
2022-07-30T00:49:35.565Z,36.97
2022-07-30T00:52:02.730Z,37.10
2022-07-30T00:54:29.883Z,39.43
2022-07-30T00:56:57.142Z,50.07
2022-07-30T00:59:24.429Z,46.60
2022-07-30T01:05:21.180Z,47.30
2022-07-30T01:07:48.409Z,44.73
2022-07-30T01:10:16.335Z,50.13
2022-07-30T01:12:44.580Z,49.43
2022-07-30T01:15:12.758Z,51.70
2022-07-30T01:17:40.161Z,48.03
2022-07-30T01:20:09.119Z,46.07
2022-07-30T01:22:36.364Z,49.67
2022-07-30T01:25:15.391Z,44.63
2022-07-30T01:27:44.793Z,46.60
2022-07-30T01:30:12.717Z,48.73
2022-07-30T01:32:43.432Z,43.43
2022-07-30T01:35:11.544Z,51.57
2022-07-30T01:37:39.576Z,44.73
2022-07-30T01:40:07.402Z,41.90
2022-07-30T01:42:35.559Z,45.47
2022-07-30T01:45:03.603Z,48.07
2022-07-30T01:47:31.757Z,51.83
2022-07-30T01:49:59.938Z,59.63
2022-07-30T01:52:30.955Z,56.70
2022-07-30T01:54:59.110Z,60.37
2022-07-30T01:57:26.753Z,58.70
2022-07-30T01:59:58.287Z,59.07
2022-07-30T02:02:25.464Z,57.90
2022-07-30T02:04:52.652Z,67.27
2022-07-30T02:07:24.150Z,67.30
2022-07-30T02:09:56.292Z,62.50
2022-07-30T02:12:28.569Z,59.67
2022-07-30T02:14:58.933Z,54.90
2022-07-30T02:17:30.423Z,52.03
2022-07-30T02:20:09.990Z,51.53
2022-07-30T02:22:38.762Z,54.93
2022-07-30T02:25:06.491Z,54.63
2022-07-30T02:27:35.877Z,60.00
2022-07-30T02:30:06.259Z,58.73
2022-07-30T02:32:38.139Z,57.80
2022-07-30T02:35:10.397Z,57.17
2022-07-30T02:37:41.010Z,57.50
2022-07-30T02:40:13.380Z,54.07
2022-07-30T02:42:41.746Z,57.37
2022-07-30T02:45:09.157Z,58.47
2022-07-30T02:47:37.640Z,59.47
2022-07-30T02:50:05.352Z,57.40
2022-07-30T02:52:32.674Z,61.60
2022-07-30T02:55:01.042Z,63.67
2022-07-30T02:57:28.755Z,67.20
2022-07-30T02:59:56.658Z,67.07
2022-07-30T03:02:29.805Z,65.33
2022-07-30T03:04:59.580Z,66.07
2022-07-30T03:07:28.178Z,63.20
2022-07-30T03:09:55.935Z,59.57
2022-07-30T03:12:24.281Z,56.83
2022-07-30T03:14:51.796Z,69.07
2022-07-30T03:17:19.613Z,70.03
2022-07-30T03:19:48.836Z,70.50
2022-07-30T03:22:16.336Z,58.17
2022-07-30T03:24:44.564Z,59.93
2022-07-30T03:27:11.693Z,60.67
2022-07-30T03:29:39.800Z,48.23
2022-07-30T03:32:07.290Z,40.07
2022-07-30T03:34:35.177Z,35.33
2022-07-30T03:37:05.019Z,33.10
2022-07-30T03:39:36.235Z,35.53
2022-07-30T03:42:04.142Z,41.30
2022-07-30T03:44:31.642Z,39.23
2022-07-30T03:47:00.277Z,39.93
2022-07-30T03:49:29.322Z,41.83
2022-07-30T03:51:56.776Z,43.03
2022-07-30T03:54:24.240Z,41.87
2022-07-30T03:56:51.445Z,38.70
2022-07-30T03:59:18.692Z,37.40
2022-07-30T04:01:46.353Z,36.40
2022-07-30T04:04:13.608Z,34.97
2022-07-30T04:06:40.834Z,37.90
2022-07-30T04:09:08.819Z,39.90
2022-07-30T04:11:40.662Z,40.57
2022-07-30T04:14:09.271Z,40.97
2022-07-30T04:16:48.272Z,43.70
2022-07-30T04:19:30.267Z,38.53
2022-07-30T04:21:59.358Z,38.57
2022-07-30T04:24:27.518Z,39.00
2022-07-30T04:26:54.791Z,41.87
2022-07-30T04:29:24.698Z,39.83
2022-07-30T04:31:53.549Z,39.70
2022-07-30T04:34:20.984Z,40.13
2022-07-30T04:36:48.118Z,39.60
2022-07-30T04:39:15.825Z,36.80
2022-07-30T04:41:48.978Z,32.87
2022-07-30T04:44:17.387Z,34.40
2022-07-30T04:46:44.580Z,34.83
2022-07-30T04:49:13.066Z,33.90
2022-07-30T04:51:41.454Z,30.97
2022-07-30T04:54:15.791Z,34.23
2022-07-30T04:56:53.724Z,30.27
2022-07-30T04:59:22.377Z,34.13
2022-07-30T05:01:50.892Z,33.00
2022-07-30T05:04:19.003Z,36.37
2022-07-30T05:06:46.576Z,35.00
2022-07-30T05:09:15.213Z,33.20
2022-07-30T05:11:42.350Z,32.33
2022-07-30T05:14:09.454Z,33.20
2022-07-30T05:16:36.593Z,36.13
2022-07-30T05:19:07.452Z,32.13
2022-07-30T05:21:35.243Z,30.40
2022-07-30T05:24:02.382Z,32.90
2022-07-30T05:26:29.550Z,43.97
2022-07-30T05:28:57.275Z,43.70
2022-07-30T05:31:25.012Z,41.93
2022-07-30T05:33:52.354Z,39.77
2022-07-30T05:36:20.409Z,34.97
2022-07-30T05:38:48.045Z,30.30
2022-07-30T05:41:30.623Z,29.83
2022-07-30T05:44:00.464Z,27.97
2022-07-30T05:46:27.680Z,31.63
2022-07-30T05:48:54.975Z,28.33
2022-07-30T05:51:22.476Z,21.63
2022-07-30T05:53:49.973Z,22.27
2022-07-30T05:56:17.172Z,20.33
2022-07-30T05:58:44.320Z,19.03
2022-07-30T06:01:11.703Z,15.30
2022-07-30T06:03:39.387Z,13.83
2022-07-30T06:06:07.637Z,14.87
2022-07-30T06:08:34.904Z,14.30
2022-07-30T06:11:02.010Z,12.23
2022-07-30T06:13:29.218Z,13.23
2022-07-30T06:15:56.749Z,15.13
2022-07-30T06:18:23.941Z,16.60
2022-07-30T06:20:52.041Z,15.13
2022-07-30T06:23:19.525Z,15.40
2022-07-30T06:25:48.119Z,17.67
2022-07-30T06:28:36.363Z,17.67
2022-07-30T06:31:02.909Z,15.87
2022-07-30T06:33:30.379Z,19.10
2022-07-30T06:35:57.492Z,17.03
2022-07-30T06:38:24.686Z,17.03
2022-07-30T06:40:51.907Z,16.50
2022-07-30T06:43:20.314Z,19.80
2022-07-30T06:45:47.437Z,19.73
2022-07-30T06:48:14.616Z,20.13
2022-07-30T06:50:41.887Z,19.20
2022-07-30T06:53:09.201Z,23.27
2022-07-30T06:55:36.337Z,24.42
2022-07-30T06:58:03.795Z,22.02
2022-07-30T07:00:31.135Z,20.63
2022-07-30T07:02:58.229Z,24.95
2022-07-30T07:05:28.915Z,22.73
2022-07-30T07:07:59.605Z,23.48
2022-07-30T07:10:27.709Z,23.55
2022-07-30T07:12:55.122Z,23.92
2022-07-30T07:15:36.344Z,20.50
2022-07-30T07:18:05.002Z,21.70
2022-07-30T07:20:32.347Z,22.45
2022-07-30T07:22:59.483Z,19.30
2022-07-30T07:25:26.681Z,22.25
2022-07-30T07:28:12.842Z,17.48
2022-07-30T07:30:41.301Z,18.33
2022-07-30T07:33:08.690Z,16.80
2022-07-30T07:35:41.109Z,16.02
2022-07-30T07:38:16.626Z,17.75
2022-07-30T07:40:43.764Z,14.50
2022-07-30T07:43:10.913Z,13.82
2022-07-30T07:45:38.305Z,15.60
2022-07-30T07:48:05.849Z,13.55
2022-07-30T07:50:32.999Z,12.45
2022-07-30T07:53:00.468Z,12.95
2022-07-30T07:55:27.825Z,10.10
2022-07-30T07:57:54.955Z,11.93
2022-07-30T08:00:22.238Z,12.23
2022-07-30T08:02:49.672Z,9.38
2022-07-30T08:05:17.522Z,9.68
2022-07-30T08:07:45.301Z,9.45
2022-07-30T08:10:15.013Z,9.40
2022-07-30T08:12:42.687Z,9.20
2022-07-30T08:15:10.197Z,8.98
2022-07-30T08:17:44.025Z,10.82
2022-07-30T08:20:11.760Z,8.75
2022-07-30T08:22:38.930Z,10.38
2022-07-30T08:25:06.589Z,8.30
2022-07-30T08:27:33.787Z,9.27
2022-07-30T08:30:08.505Z,8.63
2022-07-30T08:32:36.073Z,7.95
2022-07-30T08:35:03.972Z,10.35
2022-07-30T08:37:31.229Z,10.98
2022-07-30T08:39:58.482Z,9.90
2022-07-30T08:42:27.190Z,7.82
2022-07-30T08:44:54.773Z,10.15
2022-07-30T08:47:24.327Z,7.32
2022-07-30T08:49:52.649Z,8.95
2022-07-30T08:52:20.350Z,8.30
2022-07-30T08:54:47.559Z,7.50
2022-07-30T08:57:15.091Z,8.65
2022-07-30T09:00:00.799Z,7.57
2022-07-30T09:02:30.688Z,8.52
2022-07-30T09:04:57.862Z,8.75
2022-07-30T09:07:24.985Z,6.85
2022-07-30T09:09:52.136Z,9.25
2022-07-30T09:12:34.146Z,12.38
2022-07-30T09:15:19.316Z,13.02
2022-07-30T09:17:47.934Z,12.80
2022-07-30T09:20:15.169Z,9.13
2022-07-30T09:22:47.278Z,9.65
2022-07-30T09:25:14.439Z,12.10
2022-07-30T09:27:45.653Z,8.57
2022-07-30T09:30:13.025Z,9.23
2022-07-30T09:32:50.333Z,11.45
2022-07-30T09:35:18.263Z,11.10
2022-07-30T09:37:46.326Z,10.75
2022-07-30T09:40:17.583Z,15.05
2022-07-30T09:42:45.140Z,11.18
2022-07-30T09:45:13.485Z,11.60
2022-07-30T09:47:44.882Z,9.32
2022-07-30T09:50:13.543Z,12.52
2022-07-30T09:53:06.487Z,12.18
2022-07-30T09:55:34.476Z,12.52
2022-07-30T09:58:03.258Z,10.45
2022-07-30T10:00:31.845Z,11.93
2022-07-30T10:03:00.611Z,12.73
2022-07-30T10:05:40.018Z,10.65
2022-07-30T10:08:09.385Z,10.25
2022-07-30T10:10:46.903Z,8.93
2022-07-30T10:13:17.931Z,7.90
2022-07-30T10:15:50.127Z,10.65
2022-07-30T10:18:18.298Z,8.82
2022-07-30T10:20:45.733Z,10.98
2022-07-30T10:24:46.591Z,9.70
2022-07-30T10:26:03.586Z,7.80
2022-07-30T10:28:35.798Z,13.27
2022-07-30T10:31:08.439Z,12.77
2022-07-30T10:33:53.506Z,8.25
2022-07-30T10:36:21.796Z,12.02
2022-07-30T10:38:53.053Z,9.82
2022-07-30T10:41:43.351Z,10.32
2022-07-30T10:44:25.764Z,11.25
2022-07-30T10:46:58.790Z,9.07
2022-07-30T10:49:26.233Z,10.40
2022-07-30T10:51:55.132Z,8.68
2022-07-30T10:54:57.823Z,8.77
2022-07-30T10:57:32.279Z,10.93
2022-07-30T11:00:09.554Z,7.80
2022-07-30T11:02:36.756Z,7.25
2022-07-30T11:05:27.168Z,5.95
2022-07-30T11:08:31.795Z,9.07
2022-07-30T11:10:59.763Z,9.43
2022-07-30T11:14:00.249Z,8.50
2022-07-30T11:16:33.231Z,8.88
2022-07-30T11:19:55.235Z,6.13
2022-07-30T11:22:17.571Z,7.72
2022-07-30T11:24:47.094Z,5.90
2022-07-30T11:27:36.208Z,6.35
2022-07-30T11:30:04.179Z,7.47
2022-07-30T11:32:32.400Z,7.97
2022-07-30T11:35:14.771Z,7.45
2022-07-30T11:38:01.982Z,7.30
2022-07-30T11:40:30.687Z,6.15
2022-07-30T11:43:17.293Z,9.65
2022-07-30T11:45:45.335Z,8.18
2022-07-30T11:48:13.720Z,9.35
2022-07-30T11:50:41.616Z,8.98
2022-07-30T11:53:09.689Z,8.80
2022-07-30T11:55:42.433Z,10.13
2022-07-30T11:58:10.763Z,10.10
2022-07-30T12:00:39.933Z,7.35
2022-07-30T12:03:13.767Z,8.70
2022-07-30T12:05:41.186Z,11.40
2022-07-30T12:08:08.555Z,8.02
2022-07-30T12:10:56.919Z,7.18
2022-07-30T12:13:45.100Z,8.40
2022-07-30T12:16:15.941Z,7.68
2022-07-30T12:18:43.196Z,7.97
2022-07-30T12:21:17.304Z,9.10
2022-07-30T12:23:54.554Z,9.05
2022-07-30T12:26:22.482Z,8.70
2022-07-30T12:28:49.925Z,8.70
2022-07-30T12:31:17.418Z,9.75
2022-07-30T12:33:44.557Z,8.13
2022-07-30T12:36:24.132Z,10.30
2022-07-30T12:38:52.724Z,8.00
2022-07-30T12:41:20.007Z,10.00
2022-07-30T12:43:49.918Z,8.07
2022-07-30T12:46:18.661Z,8.63
2022-07-30T12:48:49.437Z,10.05
2022-07-30T12:51:16.995Z,72.75
2022-07-30T12:53:44.349Z,10.20
2022-07-30T12:56:15.541Z,36.50
2022-07-30T12:58:43.083Z,11.02
2022-07-30T13:01:13.226Z,20.38
2022-07-30T13:03:40.860Z,12.57
2022-07-30T13:06:18.631Z,19.35
2022-07-30T13:08:47.484Z,19.77
2022-07-30T13:11:14.863Z,11.32
2022-07-30T13:13:42.022Z,18.13
2022-07-30T13:16:09.430Z,19.70
2022-07-30T13:18:37.341Z,84.75
2022-07-30T13:21:06.800Z,26.70
2022-07-30T13:23:34.529Z,26.58
2022-07-30T13:26:01.657Z,17.27
2022-07-30T13:28:28.783Z,19.90
2022-07-30T13:30:57.141Z,22.88
2022-07-30T13:33:24.471Z,14.23
2022-07-30T13:35:51.600Z,12.45
2022-07-30T13:38:18.734Z,13.02
2022-07-30T13:40:45.879Z,14.60
2022-07-30T13:43:13.077Z,13.00
2022-07-30T13:45:40.271Z,9.70
2022-07-30T13:48:07.478Z,9.02
2022-07-30T13:50:34.693Z,10.52
2022-07-30T13:53:02.695Z,7.57
2022-07-30T13:55:30.139Z,11.32
2022-07-30T13:57:57.322Z,8.63
2022-07-30T14:00:24.760Z,9.60
2022-07-30T14:02:52.204Z,7.78
2022-07-30T14:05:19.417Z,9.18
2022-07-30T14:07:46.563Z,15.73
2022-07-30T14:10:13.764Z,10.57
2022-07-30T14:12:40.951Z,10.05
2022-07-30T14:15:09.659Z,11.75
2022-07-30T14:17:36.997Z,8.48
2022-07-30T14:20:04.602Z,7.03
2022-07-30T14:22:31.735Z,9.30
2022-07-30T14:25:00.274Z,10.27
2022-07-30T14:27:27.403Z,7.72
2022-07-30T14:29:54.539Z,10.10
2022-07-30T14:32:21.686Z,8.77
2022-07-30T14:34:50.622Z,8.13
2022-07-30T14:37:18.061Z,7.40
2022-07-30T14:39:45.189Z,11.43
2022-07-30T14:42:12.364Z,17.70
2022-07-30T14:44:39.518Z,9.65
2022-07-30T14:47:07.167Z,11.68
2022-07-30T14:49:34.673Z,12.77
2022-07-30T14:52:01.951Z,16.17
2022-07-30T14:54:29.189Z,5.88
2022-07-30T14:56:58.418Z,6.95
2022-07-30T14:59:27.437Z,14.13
2022-07-30T15:01:55.378Z,11.20
2022-07-30T15:04:23.062Z,7.25
2022-07-30T15:06:50.232Z,5.95
2022-07-30T15:09:17.370Z,10.32
2022-07-30T15:12:08.072Z,12.55
2022-07-30T15:14:31.687Z,9.57
2022-07-30T15:17:03.985Z,7.18
2022-07-30T15:19:31.865Z,7.50
2022-07-30T15:22:02.009Z,8.60
2022-07-30T15:24:29.839Z,6.50
2022-07-30T15:26:56.965Z,11.63
2022-07-30T15:29:24.372Z,9.57
2022-07-30T15:31:52.122Z,8.75
2022-07-30T15:34:19.383Z,7.85
2022-07-30T15:36:46.533Z,8.60
2022-07-30T15:39:13.657Z,7.45
2022-07-30T15:41:42.915Z,10.70
2022-07-30T15:44:10.137Z,7.07
2022-07-30T15:46:37.275Z,7.22
2022-07-30T15:49:04.465Z,5.88
2022-07-30T15:51:32.738Z,6.63
2022-07-30T15:53:59.965Z,7.57
2022-07-30T15:56:28.271Z,9.10
2022-07-30T15:58:55.577Z,7.25
2022-07-30T16:01:22.959Z,6.90
2022-07-30T16:03:50.164Z,8.30
2022-07-30T16:06:17.307Z,8.38
2022-07-30T16:08:44.510Z,9.95
2022-07-30T16:11:11.681Z,7.85
2022-07-30T16:13:38.864Z,7.72
2022-07-30T16:16:05.991Z,8.73
2022-07-30T16:18:33.128Z,7.75
2022-07-30T16:21:01.251Z,7.78
2022-07-30T16:23:36.225Z,7.75
2022-07-30T16:26:04.116Z,7.93
2022-07-30T16:28:31.249Z,7.07
2022-07-30T16:30:58.429Z,6.40
2022-07-30T16:33:25.546Z,9.88
2022-07-30T16:35:52.723Z,6.32
2022-07-30T16:38:20.751Z,7.22
2022-07-30T16:40:47.977Z,8.07
2022-07-30T16:43:15.646Z,7.45
2022-07-30T16:45:46.670Z,7.55
2022-07-30T16:48:13.860Z,10.48
2022-07-30T16:50:41.828Z,7.25
2022-07-30T16:53:13.341Z,9.00
2022-07-30T16:55:41.279Z,9.15
2022-07-30T16:58:08.408Z,6.10
2022-07-30T17:00:35.549Z,6.32
2022-07-30T17:03:02.856Z,5.82
2022-07-30T17:05:30.027Z,7.50
2022-07-30T17:07:57.225Z,5.80
2022-07-30T17:10:26.359Z,6.53
2022-07-30T17:12:54.398Z,7.78
2022-07-30T17:15:32.961Z,7.80
2022-07-30T17:18:00.543Z,11.27
2022-07-30T17:20:27.820Z,12.00
2022-07-30T17:22:56.047Z,13.95
2022-07-30T17:25:25.625Z,14.07
2022-07-30T17:27:52.718Z,13.10
2022-07-30T17:30:20.489Z,9.35
2022-07-30T17:32:47.713Z,14.63
2022-07-30T17:35:16.054Z,8.77
2022-07-30T17:37:43.253Z,9.00
2022-07-30T17:40:27.578Z,9.43
2022-07-30T17:43:04.651Z,10.57
2022-07-30T17:45:35.752Z,9.50
2022-07-30T17:48:03.438Z,9.45
2022-07-30T17:50:32.143Z,12.52
2022-07-30T17:52:59.542Z,9.00
2022-07-30T17:55:28.219Z,9.43
2022-07-30T17:57:55.363Z,11.73
2022-07-30T18:00:23.070Z,10.10
2022-07-30T18:02:50.216Z,10.23
2022-07-30T18:05:17.398Z,9.70
2022-07-30T18:07:44.621Z,9.68
2022-07-30T18:10:13.008Z,8.52
2022-07-30T18:12:48.951Z,8.43
2022-07-30T18:15:16.944Z,15.63
2022-07-30T18:17:44.134Z,10.55
2022-07-30T18:20:11.534Z,8.93
2022-07-30T18:22:38.698Z,15.55
2022-07-30T18:25:07.975Z,14.15
2022-07-30T18:27:43.631Z,11.70
2022-07-30T18:30:10.980Z,12.00
2022-07-30T18:32:38.510Z,16.55
2022-07-30T18:35:06.803Z,14.65
2022-07-30T18:37:41.263Z,12.90
2022-07-30T18:40:09.556Z,13.50
2022-07-30T18:42:36.829Z,14.30
2022-07-30T18:45:04.353Z,16.00
2022-07-30T18:47:31.467Z,16.20
2022-07-30T18:49:58.679Z,12.40
2022-07-30T18:52:25.921Z,18.60
2022-07-30T18:54:53.059Z,9.02
2022-07-30T18:57:20.193Z,9.98
2022-07-30T18:59:47.343Z,11.07
2022-07-30T19:02:14.494Z,9.55
2022-07-30T19:04:41.665Z,10.10
2022-07-30T19:07:08.831Z,8.20
2022-07-30T19:09:36.051Z,7.82
2022-07-30T19:12:03.604Z,11.43
2022-07-30T19:14:30.934Z,8.63
2022-07-30T19:16:59.298Z,12.05
2022-07-30T19:19:27.549Z,11.18
2022-07-30T19:21:54.980Z,12.23
2022-07-30T19:24:22.173Z,11.43
2022-07-30T19:26:49.416Z,9.50
2022-07-30T19:29:16.612Z,9.13
2022-07-30T19:31:43.774Z,10.00
2022-07-30T19:34:11.708Z,10.48
2022-07-30T19:36:39.691Z,11.60
2022-07-30T19:39:08.242Z,15.35
2022-07-30T19:41:40.704Z,10.15
2022-07-30T19:44:09.074Z,15.60
2022-07-30T19:46:36.378Z,15.35
2022-07-30T19:49:03.629Z,8.75
2022-07-30T19:52:22.957Z,11.33
2022-07-30T19:54:21.121Z,11.25
2022-07-30T19:56:48.940Z,11.60
2022-07-30T19:59:18.225Z,14.90
2022-07-30T20:01:45.344Z,12.13
2022-07-30T20:04:18.963Z,16.17
2022-07-30T20:06:46.393Z,11.23
2022-07-30T20:09:14.596Z,19.48
2022-07-30T20:11:42.924Z,15.03
2022-07-30T20:14:10.587Z,11.20
2022-07-30T20:16:37.801Z,13.97
2022-07-30T20:19:05.224Z,9.05
2022-07-30T20:21:56.248Z,13.63
2022-07-30T20:24:20.950Z,13.47
2022-07-30T20:26:48.244Z,14.83
2022-07-30T20:29:19.371Z,14.97
2022-07-30T20:31:49.915Z,18.23
2022-07-30T20:34:19.510Z,14.73
2022-07-30T20:36:47.775Z,14.30
2022-07-30T20:39:18.470Z,14.70
2022-07-30T20:41:47.017Z,11.07
2022-07-30T20:44:23.041Z,12.07
2022-07-30T20:46:50.921Z,20.23
2022-07-30T20:49:24.245Z,21.90
2022-07-30T20:52:02.950Z,14.90
2022-07-30T20:54:30.349Z,22.77
2022-07-30T20:56:57.815Z,18.10
2022-07-30T20:59:25.175Z,12.47
2022-07-30T21:01:52.271Z,15.17
2022-07-30T21:04:23.998Z,11.33
2022-07-30T21:06:52.853Z,16.27
2022-07-30T21:09:20.492Z,9.30
2022-07-30T21:11:50.281Z,10.70
2022-07-30T21:14:18.306Z,12.67
2022-07-30T21:16:46.829Z,9.63
2022-07-30T21:19:17.752Z,12.57
2022-07-30T21:21:48.272Z,10.47
2022-07-30T21:24:18.751Z,11.47
2022-07-30T21:26:48.628Z,10.87
2022-07-30T21:29:16.381Z,10.23
2022-07-30T21:32:01.704Z,13.20
2022-07-30T21:34:36.022Z,11.57
2022-07-30T21:37:07.646Z,11.70
2022-07-30T21:39:40.207Z,12.87
2022-07-30T21:42:08.077Z,11.40
2022-07-30T21:44:35.892Z,9.63
2022-07-30T21:47:05.112Z,11.67
2022-07-30T21:49:37.386Z,12.23
2022-07-30T21:52:05.023Z,11.63
2022-07-30T21:54:37.499Z,11.73
2022-07-30T21:57:13.000Z,11.67
2022-07-30T21:59:41.060Z,14.37
2022-07-30T22:02:15.898Z,9.97
2022-07-30T22:04:47.576Z,9.63
2022-07-30T22:07:17.971Z,10.80
2022-07-30T22:09:45.610Z,11.33
2022-07-30T22:12:18.013Z,10.73
2022-07-30T22:14:45.354Z,12.37
2022-07-30T22:17:23.475Z,10.67
2022-07-30T22:19:56.932Z,7.90
2022-07-30T22:22:27.450Z,12.93
2022-07-30T22:24:58.133Z,12.93
2022-07-30T22:27:25.546Z,11.17
2022-07-30T22:29:55.593Z,9.53
2022-07-30T22:32:23.302Z,9.93
2022-07-30T22:34:50.667Z,11.90
2022-07-30T22:37:21.177Z,10.20
2022-07-30T22:39:50.790Z,11.03
2022-07-30T22:42:19.738Z,12.50
2022-07-30T22:44:47.319Z,11.60
2022-07-30T22:47:18.737Z,10.77
2022-07-30T22:49:59.193Z,11.20
2022-07-30T22:52:28.243Z,11.33
2022-07-30T22:54:59.751Z,10.63
2022-07-30T22:57:37.876Z,13.27
2022-07-30T23:00:07.002Z,11.87
2022-07-30T23:02:38.999Z,11.57
2022-07-30T23:05:06.700Z,10.70
2022-07-30T23:07:38.894Z,11.20
2022-07-30T23:10:17.097Z,9.80
2022-07-30T23:12:46.338Z,9.53
2022-07-30T23:15:13.610Z,12.97
2022-07-30T23:17:40.732Z,10.33
2022-07-30T23:20:09.733Z,9.57
2022-07-30T23:22:36.983Z,10.13
2022-07-30T23:25:07.698Z,10.17
2022-07-30T23:27:34.874Z,11.03
2022-07-30T23:30:02.012Z,9.27
2022-07-30T23:32:29.225Z,11.53
2022-07-30T23:34:56.349Z,11.83
2022-07-30T23:37:23.487Z,16.67
2022-07-30T23:39:50.707Z,12.47
2022-07-30T23:42:18.810Z,10.90
2022-07-30T23:44:45.983Z,11.30
2022-07-30T23:47:13.102Z,9.83
2022-07-30T23:49:40.263Z,11.13
2022-07-30T23:52:07.406Z,13.20
2022-07-30T23:54:34.541Z,10.90
2022-07-30T23:57:01.919Z,10.77
2022-07-30T23:59:40.722Z,13.23
